createdAt,value
2023-03-06T00:01:27.438Z,99264.34
2023-03-06T00:04:16.366Z,99262.16
2023-03-06T00:07:03.001Z,99261.25
2023-03-06T00:09:49.794Z,99259.50
2023-03-06T00:12:38.957Z,99261.94
2023-03-06T00:15:28.481Z,99235.66
2023-03-06T00:18:24.097Z,99254.63
2023-03-06T00:21:16.132Z,99257.16
2023-03-06T00:24:05.060Z,99258.69
2023-03-06T00:26:51.046Z,99248.72
2023-03-06T00:29:38.037Z,99228.81
2023-03-06T00:32:26.179Z,99248.34
2023-03-06T00:35:13.630Z,99239.16
2023-03-06T00:38:04.653Z,99229.50
2023-03-06T00:40:55.513Z,99196.63
2023-03-06T00:43:42.114Z,99244.97
2023-03-06T00:46:28.701Z,99224.53
2023-03-06T00:49:15.336Z,99227.19
2023-03-06T00:52:03.748Z,99209.31
2023-03-06T00:54:49.785Z,99213.94
2023-03-06T00:57:36.372Z,99210.22
2023-03-06T01:00:22.539Z,99184.56
2023-03-06T01:03:09.985Z,99195.00
2023-03-06T01:05:57.943Z,99196.94
2023-03-06T01:08:44.545Z,99202.28
2023-03-06T01:11:31.526Z,99199.88
2023-03-06T01:14:19.530Z,99196.50
2023-03-06T01:17:06.020Z,99208.47
2023-03-06T01:19:52.633Z,99199.16
2023-03-06T01:22:39.053Z,99167.56
2023-03-06T01:25:26.185Z,99167.00
2023-03-06T01:28:12.595Z,99196.47
2023-03-06T01:31:04.520Z,99173.50
2023-03-06T01:33:50.425Z,99179.16
2023-03-06T01:36:37.571Z,99153.72
2023-03-06T01:39:25.121Z,99194.16
2023-03-06T01:42:11.844Z,99190.06
2023-03-06T01:45:01.392Z,99189.84
2023-03-06T01:47:48.196Z,99143.03
2023-03-06T01:50:34.631Z,99187.97
2023-03-06T01:53:21.566Z,99181.00
2023-03-06T01:56:08.082Z,99112.25
2023-03-06T01:58:55.107Z,99168.56
2023-03-06T02:01:42.593Z,99172.41
2023-03-06T02:04:32.778Z,99171.59
2023-03-06T02:07:20.359Z,99176.13
2023-03-06T02:10:07.805Z,99162.19
2023-03-06T02:12:54.656Z,99163.69
2023-03-06T02:15:41.818Z,99149.16
2023-03-06T02:18:29.499Z,99164.72
2023-03-06T02:21:22.232Z,99155.53
2023-03-06T02:24:30.201Z,99150.75
2023-03-06T02:27:20.037Z,99128.25
2023-03-06T02:30:09.865Z,99158.06
2023-03-06T02:32:57.361Z,99093.59
2023-03-06T02:35:49.376Z,99152.22
2023-03-06T02:38:48.033Z,99138.09
2023-03-06T02:41:34.250Z,99134.59
2023-03-06T02:44:22.510Z,99130.50
2023-03-06T02:47:14.431Z,99118.41
2023-03-06T02:50:04.904Z,99123.97
2023-03-06T02:52:53.859Z,99114.53
2023-03-06T02:55:43.994Z,99122.53
2023-03-06T02:58:30.192Z,99117.81
2023-03-06T03:01:18.076Z,99102.72
2023-03-06T03:04:04.698Z,99065.44
2023-03-06T03:06:54.057Z,99120.03
2023-03-06T03:09:40.223Z,99090.47
2023-03-06T03:12:28.807Z,99098.50
2023-03-06T03:15:15.257Z,99096.81
2023-03-06T03:18:05.010Z,99107.75
2023-03-06T03:20:55.179Z,99050.63
2023-03-06T03:23:44.658Z,99100.97
2023-03-06T03:26:31.279Z,99104.78
2023-03-06T03:29:22.789Z,99091.00
2023-03-06T03:32:09.725Z,99100.75
2023-03-06T03:34:57.261Z,99089.19
2023-03-06T03:37:45.117Z,99082.84
2023-03-06T03:40:32.253Z,99084.28
2023-03-06T03:43:19.685Z,99100.28
2023-03-06T03:46:07.171Z,99091.13
2023-03-06T03:48:53.795Z,99083.31
2023-03-06T03:51:40.858Z,99095.03
2023-03-06T03:54:27.086Z,99073.97
2023-03-06T03:57:14.383Z,99100.47
2023-03-06T04:00:12.088Z,99091.38
2023-03-06T04:03:10.046Z,99076.84
2023-03-06T04:06:03.897Z,99078.50
2023-03-06T04:08:50.530Z,99085.84
2023-03-06T04:11:37.650Z,99073.25
2023-03-06T04:14:27.214Z,99077.63
2023-03-06T04:17:33.675Z,99031.41
2023-03-06T04:20:23.882Z,99022.06
2023-03-06T04:23:10.428Z,99047.53
2023-03-06T04:25:57.921Z,99042.19
2023-03-06T04:28:44.822Z,99061.69
2023-03-06T04:31:31.919Z,98999.31
2023-03-06T04:34:18.308Z,99046.69
2023-03-06T04:37:06.408Z,99057.50
2023-03-06T04:39:55.044Z,99041.69
2023-03-06T04:42:41.986Z,99034.94
2023-03-06T04:45:29.887Z,99033.34
2023-03-06T04:48:19.982Z,99040.66
2023-03-06T04:51:06.404Z,99025.31
2023-03-06T04:53:56.324Z,99029.88
2023-03-06T04:56:42.460Z,99028.63
2023-03-06T04:59:31.871Z,99025.31
2023-03-06T05:02:18.683Z,98997.06
2023-03-06T05:05:08.822Z,98965.22
2023-03-06T05:07:55.753Z,99034.88
2023-03-06T05:10:43.513Z,99003.66
2023-03-06T05:13:29.914Z,99026.94
2023-03-06T05:16:16.826Z,99019.91
2023-03-06T05:19:04.106Z,99003.00
2023-03-06T05:21:53.518Z,98993.00
2023-03-06T05:24:42.386Z,99002.50
2023-03-06T05:27:29.188Z,99003.84
2023-03-06T05:30:15.752Z,98962.31
2023-03-06T05:33:02.425Z,99011.75
2023-03-06T05:35:48.976Z,98962.38
2023-03-06T05:38:39.060Z,98972.38
2023-03-06T05:41:25.423Z,99012.31
2023-03-06T05:44:12.297Z,99008.00
2023-03-06T05:47:00.302Z,98992.66
2023-03-06T05:49:47.968Z,99019.09
2023-03-06T05:52:36.993Z,99013.72
2023-03-06T05:55:26.227Z,98987.91
2023-03-06T05:58:12.718Z,99001.66
2023-03-06T06:01:00.263Z,99006.56
2023-03-06T06:03:48.447Z,99001.75
2023-03-06T06:06:35.679Z,98997.50
2023-03-06T06:09:22.639Z,98952.47
2023-03-06T06:12:09.441Z,98994.28
2023-03-06T06:14:55.948Z,98973.53
2023-03-06T06:17:42.653Z,98995.91
2023-03-06T06:20:29.231Z,98946.88
2023-03-06T06:23:16.290Z,98948.50
2023-03-06T06:26:07.879Z,98993.81
2023-03-06T06:28:59.746Z,98961.47
2023-03-06T06:31:46.631Z,98956.91
2023-03-06T06:34:39.631Z,98981.47
2023-03-06T06:37:26.202Z,98996.84
2023-03-06T06:40:13.070Z,98975.03
2023-03-06T06:43:02.288Z,98945.09
2023-03-06T06:45:49.709Z,98931.13
2023-03-06T06:48:37.842Z,98970.50
2023-03-06T06:51:24.695Z,98981.00
2023-03-06T06:54:23.633Z,98963.25
2023-03-06T06:57:11.868Z,98967.06
2023-03-06T06:59:58.687Z,98957.09
2023-03-06T07:02:49.267Z,98970.56
2023-03-06T07:05:35.471Z,98982.94
2023-03-06T07:08:22.704Z,98934.22
2023-03-06T07:11:12.952Z,98979.19
2023-03-06T07:13:59.694Z,98963.84
2023-03-06T07:16:46.259Z,98978.41
2023-03-06T07:19:33.050Z,98957.63
2023-03-06T07:22:22.730Z,98929.63
2023-03-06T07:25:09.655Z,98969.25
2023-03-06T07:27:56.325Z,98956.84
2023-03-06T07:30:43.899Z,98984.31
2023-03-06T07:33:32.854Z,98982.47
2023-03-06T07:36:20.319Z,98966.53
2023-03-06T07:39:07.775Z,98974.09
2023-03-06T07:41:54.425Z,98920.78
2023-03-06T07:44:43.779Z,98972.75
2023-03-06T07:47:30.447Z,98970.59
2023-03-06T07:50:18.817Z,98964.94
2023-03-06T07:53:10.730Z,98977.06
2023-03-06T07:55:56.885Z,98977.06
2023-03-06T07:58:48.384Z,98978.94
2023-03-06T08:01:36.516Z,98978.41
2023-03-06T08:04:23.481Z,98952.28
2023-03-06T08:07:10.062Z,98980.03
2023-03-06T08:09:56.721Z,98969.25
2023-03-06T08:12:46.243Z,98942.28
2023-03-06T08:15:33.586Z,98979.19
2023-03-06T08:18:24.709Z,98975.16
2023-03-06T08:21:16.320Z,98949.84
2023-03-06T08:24:02.517Z,98983.47
2023-03-06T08:26:49.126Z,98926.13
2023-03-06T08:29:35.839Z,98978.38
2023-03-06T08:32:23.095Z,98968.16
2023-03-06T08:35:09.714Z,98969.47
2023-03-06T08:37:56.990Z,98936.63
2023-03-06T08:40:43.663Z,98954.13
2023-03-06T08:43:30.199Z,98969.75
2023-03-06T08:46:21.443Z,98947.16
2023-03-06T08:49:08.007Z,98968.91
2023-03-06T08:51:54.513Z,98970.53
2023-03-06T08:54:41.011Z,98965.41
2023-03-06T08:57:28.536Z,98942.50
2023-03-06T09:00:15.834Z,98967.00
2023-03-06T09:03:02.251Z,98958.66
2023-03-06T09:05:48.564Z,98969.97
2023-03-06T09:08:37.658Z,98974.53
2023-03-06T09:11:28.726Z,98966.44
2023-03-06T09:14:15.061Z,98970.47
2023-03-06T09:17:01.353Z,98966.16
2023-03-06T09:19:53.908Z,98951.09
2023-03-06T09:22:42.552Z,98962.38
2023-03-06T09:25:31.842Z,98969.63
2023-03-06T09:28:18.485Z,98970.16
2023-03-06T09:31:16.235Z,98959.41
2023-03-06T09:34:03.017Z,98963.47
2023-03-06T09:36:56.831Z,98958.09
2023-03-06T09:39:43.807Z,98968.00
2023-03-06T09:42:31.678Z,98961.53
2023-03-06T09:45:20.663Z,98915.78
2023-03-06T09:48:16.236Z,98965.28
2023-03-06T09:51:10.608Z,98952.88
2023-03-06T09:54:13.532Z,98967.38
2023-03-06T09:57:03.676Z,98980.00
2023-03-06T09:59:56.055Z,98974.91
2023-03-06T10:02:50.859Z,98960.63
2023-03-06T10:05:43.507Z,98970.31
2023-03-06T10:08:39.366Z,98971.41
2023-03-06T10:11:34.573Z,98970.59
2023-03-06T10:14:46.630Z,98961.41
2023-03-06T10:17:37.769Z,98962.97
2023-03-06T10:20:38.566Z,98961.06
2023-03-06T10:23:52.566Z,98958.06
2023-03-06T10:26:45.302Z,98959.63
2023-03-06T10:29:41.055Z,98939.97
2023-03-06T10:32:49.443Z,98955.81
2023-03-06T10:35:48.905Z,98927.53
2023-03-06T10:38:41.241Z,98954.09
2023-03-06T10:41:32.078Z,98950.34
2023-03-06T10:44:21.109Z,98950.81
2023-03-06T10:47:27.846Z,98946.03
2023-03-06T10:50:34.754Z,98951.19
2023-03-06T10:53:25.410Z,98942.00
2023-03-06T10:56:12.594Z,98958.97
2023-03-06T10:59:11.638Z,98949.78
2023-03-06T11:02:21.437Z,98942.72
2023-03-06T11:05:21.105Z,98957.47
2023-03-06T11:08:21.907Z,98945.34
2023-03-06T11:11:12.513Z,98900.63
2023-03-06T11:14:02.261Z,98947.09
2023-03-06T11:16:53.367Z,98942.16
2023-03-06T11:19:43.406Z,98911.22
2023-03-06T11:22:30.088Z,98907.88
2023-03-06T11:25:21.618Z,98884.28
2023-03-06T11:28:17.592Z,98934.56
2023-03-06T11:31:06.676Z,98931.97
2023-03-06T11:33:56.575Z,98924.38
2023-03-06T11:36:48.894Z,98917.34
2023-03-06T11:39:49.550Z,98916.00
2023-03-06T11:42:39.740Z,98895.25
2023-03-06T11:45:34.827Z,98927.28
2023-03-06T11:48:23.938Z,98930.03
2023-03-06T11:51:26.010Z,98927.47
2023-03-06T11:54:13.441Z,98933.63
2023-03-06T11:57:18.764Z,98891.47
2023-03-06T12:00:30.050Z,98924.81
2023-03-06T12:03:22.903Z,98916.72
2023-03-06T12:06:30.388Z,98925.09
2023-03-06T12:09:24.522Z,98905.13
2023-03-06T12:12:23.167Z,98876.69
2023-03-06T12:15:40.756Z,98914.34
2023-03-06T12:18:58.109Z,98932.94
2023-03-06T12:22:12.660Z,98896.75
2023-03-06T12:25:11.715Z,98867.34
2023-03-06T12:28:00.969Z,98915.16
2023-03-06T12:31:06.328Z,98917.94
2023-03-06T12:34:12.555Z,98918.56
2023-03-06T12:37:27.067Z,98869.44
2023-03-06T12:40:38.943Z,98923.44
2023-03-06T12:43:47.604Z,98917.09
2023-03-06T12:46:42.003Z,98920.97
2023-03-06T12:49:33.019Z,98914.47
2023-03-06T12:52:30.305Z,98930.13
2023-03-06T12:55:22.713Z,98926.84
2023-03-06T12:58:30.673Z,98892.97
2023-03-06T13:01:32.919Z,98895.25
2023-03-06T13:04:35.757Z,98904.16
2023-03-06T13:07:32.378Z,98913.75
2023-03-06T13:10:27.137Z,98850.63
2023-03-06T13:13:46.397Z,98915.06
2023-03-06T13:16:34.972Z,98891.94
2023-03-06T13:19:26.749Z,98895.88
2023-03-06T13:22:30.226Z,98906.59
2023-03-06T13:25:17.395Z,98910.38
2023-03-06T13:28:04.828Z,98909.59
2023-03-06T13:30:56.119Z,98894.28
2023-03-06T13:33:48.002Z,98878.09
2023-03-06T13:36:39.556Z,98878.06
2023-03-06T13:39:26.206Z,98892.75
2023-03-06T13:42:26.526Z,98884.38
2023-03-06T13:45:24.551Z,98889.16
2023-03-06T13:48:43.101Z,98899.66
2023-03-06T13:51:35.008Z,98890.56
2023-03-06T13:54:55.672Z,98849.88
2023-03-06T13:57:57.075Z,98892.84
2023-03-06T14:00:46.604Z,98894.50
2023-03-06T14:04:04.486Z,98884.00
2023-03-06T14:06:52.776Z,98892.56
2023-03-06T14:09:44.730Z,98873.97
2023-03-06T14:12:34.642Z,98880.22
2023-03-06T14:15:23.746Z,98882.59
2023-03-06T14:18:17.092Z,98886.38
2023-03-06T14:21:05.720Z,98888.25
2023-03-06T14:24:01.440Z,98883.75
2023-03-06T14:26:50.775Z,98882.72
2023-03-06T14:29:37.516Z,98891.59
2023-03-06T14:32:24.522Z,98874.91
2023-03-06T14:35:23.325Z,98887.56
2023-03-06T14:38:12.980Z,98895.44
2023-03-06T14:41:03.605Z,98869.94
2023-03-06T14:43:50.393Z,98888.50
2023-03-06T14:46:40.289Z,98895.50
2023-03-06T14:49:27.214Z,98837.47
2023-03-06T14:52:21.037Z,98885.06
2023-03-06T14:55:11.879Z,98892.03
2023-03-06T14:58:02.428Z,98877.84
2023-03-06T15:00:51.630Z,98880.75
2023-03-06T15:03:48.699Z,98869.53
2023-03-06T15:06:39.728Z,98889.97
2023-03-06T15:09:32.040Z,98894.00
2023-03-06T15:12:22.805Z,98900.56
2023-03-06T15:15:12.851Z,98903.53
2023-03-06T15:18:00.405Z,98902.47
2023-03-06T15:20:56.078Z,98891.28
2023-03-06T15:23:49.446Z,98906.94
2023-03-06T15:26:37.142Z,98877.69
2023-03-06T15:29:24.136Z,98897.06
2023-03-06T15:32:31.205Z,98891.97
2023-03-06T15:35:37.342Z,98843.34
2023-03-06T15:38:45.833Z,98911.97
2023-03-06T15:41:40.026Z,98903.91
2023-03-06T15:44:31.970Z,98897.25
2023-03-06T15:47:18.334Z,98869.03
2023-03-06T15:50:17.272Z,98866.94
2023-03-06T15:53:03.935Z,98901.63
2023-03-06T15:55:51.769Z,98858.91
2023-03-06T15:58:39.273Z,98869.16
2023-03-06T16:01:26.690Z,98901.38
2023-03-06T16:04:14.043Z,98912.78
2023-03-06T16:07:00.462Z,98899.03
2023-03-06T16:09:47.493Z,98905.50
2023-03-06T16:12:34.383Z,98888.84
2023-03-06T16:15:23.198Z,98889.16
2023-03-06T16:18:11.295Z,98896.16
2023-03-06T16:20:57.867Z,98884.88
2023-03-06T16:23:44.641Z,98855.28
2023-03-06T16:26:35.286Z,98908.03
2023-03-06T16:29:25.253Z,98909.38
2023-03-06T16:32:11.900Z,98901.34
2023-03-06T16:34:58.700Z,98897.84
2023-03-06T16:37:46.046Z,98912.41
2023-03-06T16:40:37.793Z,98914.09
2023-03-06T16:43:24.254Z,98925.69
2023-03-06T16:46:22.840Z,98899.34
2023-03-06T16:49:19.032Z,98898.00
2023-03-06T16:52:09.017Z,98901.22
2023-03-06T16:54:55.588Z,98902.59
2023-03-06T16:57:42.068Z,98910.41
2023-03-06T17:00:32.055Z,98919.56
2023-03-06T17:03:18.802Z,98916.91
2023-03-06T17:06:20.304Z,98925.25
2023-03-06T17:09:07.594Z,98920.41
2023-03-06T17:11:54.151Z,98917.72
2023-03-06T17:14:40.777Z,98922.34
2023-03-06T17:17:32.411Z,98894.34
2023-03-06T17:20:19.980Z,98933.13
2023-03-06T17:23:06.418Z,98924.78
2023-03-06T17:26:02.755Z,98923.19
2023-03-06T17:28:49.522Z,98917.50
2023-03-06T17:31:38.776Z,98923.97
2023-03-06T17:34:25.320Z,98921.84
2023-03-06T17:37:11.817Z,98935.84
2023-03-06T17:39:58.723Z,98879.03
2023-03-06T17:42:45.691Z,98920.50
2023-03-06T17:45:34.315Z,98941.22
2023-03-06T17:48:23.741Z,98922.63
2023-03-06T17:51:10.845Z,98897.31
2023-03-06T17:53:57.643Z,98881.44
2023-03-06T17:56:44.581Z,98921.00
2023-03-06T17:59:34.001Z,98939.06
2023-03-06T18:02:20.250Z,98930.94
2023-03-06T18:05:07.563Z,98913.16
2023-03-06T18:07:53.955Z,98935.25
2023-03-06T18:10:41.878Z,98931.75
2023-03-06T18:13:28.476Z,98925.53
2023-03-06T18:16:17.498Z,98923.06
2023-03-06T18:19:07.581Z,98934.66
2023-03-06T18:21:54.917Z,98922.78
2023-03-06T18:24:53.872Z,98933.25
2023-03-06T18:27:40.863Z,98950.25
2023-03-06T18:30:27.665Z,98941.09
2023-03-06T18:33:14.621Z,98936.78
2023-03-06T18:36:04.096Z,98941.06
2023-03-06T18:38:51.490Z,98934.88
2023-03-06T18:41:39.628Z,98931.06
2023-03-06T18:44:26.501Z,98941.03
2023-03-06T18:47:15.616Z,98928.88
2023-03-06T18:50:05.386Z,98935.06
2023-03-06T18:52:51.566Z,98932.06
2023-03-06T18:55:38.535Z,98883.03
2023-03-06T18:58:24.916Z,98939.31
2023-03-06T19:01:12.094Z,98923.94
2023-03-06T19:04:02.759Z,98922.81
2023-03-06T19:06:52.226Z,98916.53
2023-03-06T19:09:38.899Z,98948.88
2023-03-06T19:12:25.684Z,98927.56
2023-03-06T19:15:12.576Z,98942.16
2023-03-06T19:18:05.666Z,98937.00
2023-03-06T19:21:17.737Z,98933.19
2023-03-06T19:24:13.363Z,98948.28
2023-03-06T19:26:59.975Z,98942.66
2023-03-06T19:29:46.784Z,98953.63
2023-03-06T19:32:49.707Z,98950.09
2023-03-06T19:36:05.897Z,98919.06
2023-03-06T19:38:58.572Z,98959.50
2023-03-06T19:41:46.018Z,98961.34
2023-03-06T19:44:33.400Z,98952.47
2023-03-06T19:47:20.266Z,98929.50
2023-03-06T19:50:07.244Z,98957.84
2023-03-06T19:52:54.912Z,98961.28
2023-03-06T19:55:44.631Z,98966.66
2023-03-06T19:58:31.766Z,98951.53
2023-03-06T20:01:21.357Z,98951.75
2023-03-06T20:04:08.215Z,98970.66
2023-03-06T20:06:56.356Z,98963.06
2023-03-06T20:09:44.310Z,98967.56
2023-03-06T20:12:33.865Z,98978.09
2023-03-06T20:15:22.369Z,98977.81
2023-03-06T20:18:09.161Z,98962.91
2023-03-06T20:21:02.181Z,98981.53
2023-03-06T20:23:51.112Z,98945.66
2023-03-06T20:26:38.644Z,98927.84
2023-03-06T20:29:28.252Z,98980.59
2023-03-06T20:32:14.808Z,98971.69
2023-03-06T20:35:02.046Z,98970.88
2023-03-06T20:37:48.293Z,98963.59
2023-03-06T20:40:38.916Z,98963.28
2023-03-06T20:43:28.432Z,98977.88
2023-03-06T20:46:16.557Z,98949.00
2023-03-06T20:49:03.377Z,98926.06
2023-03-06T20:51:50.500Z,98921.19
2023-03-06T20:54:36.809Z,98979.75
2023-03-06T20:57:23.805Z,98924.38
2023-03-06T21:00:11.966Z,98944.31
2023-03-06T21:02:58.726Z,98957.00
2023-03-06T21:05:48.657Z,98968.59
2023-03-06T21:08:35.875Z,98968.06
2023-03-06T21:11:22.373Z,98962.09
2023-03-06T21:14:11.481Z,98968.06
2023-03-06T21:16:59.396Z,98944.28
2023-03-06T21:19:47.252Z,98965.28
2023-03-06T21:22:33.588Z,98975.22
2023-03-06T21:25:20.739Z,98943.66
2023-03-06T21:28:07.381Z,98967.09
2023-03-06T21:30:54.536Z,98959.25
2023-03-06T21:33:41.230Z,98964.63
2023-03-06T21:36:28.294Z,98939.75
2023-03-06T21:39:14.532Z,98971.56
2023-03-06T21:42:01.294Z,98962.31
2023-03-06T21:44:47.853Z,98970.84
2023-03-06T21:47:38.887Z,98972.41
2023-03-06T21:50:25.746Z,98975.91
2023-03-06T21:53:12.556Z,98971.78
2023-03-06T21:56:01.627Z,98971.00
2023-03-06T21:59:00.344Z,98963.69
2023-03-06T22:01:47.655Z,98977.97
2023-03-06T22:04:34.511Z,98979.53
2023-03-06T22:07:21.367Z,98977.59
2023-03-06T22:10:12.326Z,98961.97
2023-03-06T22:12:58.882Z,98955.91
2023-03-06T22:15:53.024Z,98980.16
2023-03-06T22:18:39.378Z,98966.69
2023-03-06T22:21:26.411Z,98905.97
2023-03-06T22:24:12.653Z,98963.78
2023-03-06T22:26:59.515Z,98967.25
2023-03-06T22:29:46.243Z,98948.38
2023-03-06T22:32:32.902Z,98927.03
2023-03-06T22:35:20.336Z,98928.09
2023-03-06T22:38:07.196Z,98955.91
2023-03-06T22:40:57.135Z,98906.53
2023-03-06T22:43:44.153Z,98961.84
2023-03-06T22:46:32.133Z,98938.81
2023-03-06T22:49:19.186Z,98956.41
2023-03-06T22:52:05.648Z,98904.72
2023-03-06T22:54:52.453Z,98946.84
2023-03-06T22:57:38.874Z,98958.19
2023-03-06T23:00:25.851Z,98916.78
2023-03-06T23:03:12.041Z,98944.44
2023-03-06T23:05:58.637Z,98921.66
2023-03-06T23:08:49.365Z,98925.56
2023-03-06T23:11:36.108Z,98947.41
2023-03-06T23:14:41.437Z,98944.69
2023-03-06T23:17:46.894Z,98935.78
2023-03-06T23:20:51.480Z,98891.44
2023-03-06T23:23:56.832Z,98889.59
2023-03-06T23:26:43.435Z,98910.44
2023-03-06T23:29:30.078Z,98947.19
2023-03-06T23:32:16.568Z,98906.16
2023-03-06T23:35:03.233Z,98929.72
2023-03-06T23:37:49.767Z,98889.53
2023-03-06T23:40:37.988Z,98937.09
2023-03-06T23:43:24.433Z,98889.13
2023-03-06T23:46:11.259Z,98928.06
2023-03-06T23:48:57.632Z,98912.66
2023-03-06T23:51:44.260Z,98895.47
2023-03-06T23:54:30.754Z,98867.13
2023-03-06T23:57:17.200Z,98926.44
